Time;durP1;ratioP1;P1;durP2;ratioP2;P2;SDS_P1;SDS_P2;PMS_P1;PMS_P2;Temp;Humidity;BMP_temperature;BMP_pressure;BME280_temperature;BME280_humidity;BME280_pressure;Samples;Min_cycle;Max_cycle;Signal;HPM_P1;HPM_P2
2023/08/09 02:51:58;;;;;;;6.30;2.87;;;9.70;99.90;9.20;99739;;;;581197;247;24096;-78
2023/08/09 02:54:25;;;;;;;2.53;2.33;;;9.80;99.90;9.30;99749;;;;571361;247;24083;-78
2023/08/09 02:56:54;;;;;;;3.63;3.03;;;9.80;99.90;9.30;99750;;;;571155;245;24143;-78
2023/08/09 02:59:27;;;;;;;3.83;2.80;;;9.70;99.90;9.30;99754;;;;592564;240;24096;-81
2023/08/09 03:01:51;;;;;;;6.07;2.93;;;9.80;99.90;9.30;99748;;;;592216;242;24454;-77
2023/08/09 03:04:19;;;;;;;3.17;2.93;;;9.80;99.90;9.30;99749;;;;592196;242;24061;-79
2023/08/09 03:06:47;;;;;;;2.90;2.60;;;9.80;99.90;9.30;99752;;;;592081;242;24139;-79
2023/08/09 03:09:15;;;;;;;4.47;2.60;;;9.80;99.90;9.30;99754;;;;592493;242;24123;-79
2023/08/09 03:11:43;;;;;;;2.70;2.50;;;9.80;99.90;9.30;99756;;;;593013;242;24050;-78
2023/08/09 03:14:13;;;;;;;3.50;3.17;;;9.90;99.90;9.30;99764;;;;593282;238;24098;-75
2023/08/09 03:16:43;;;;;;;6.90;2.83;;;9.80;99.90;9.30;99758;;;;593230;242;24081;-77
2023/08/09 03:19:12;;;;;;;3.43;3.13;;;9.90;99.90;9.40;99761;;;;589062;242;24056;-77
2023/08/09 03:21:36;;;;;;;2.83;2.53;;;9.90;99.90;9.40;99758;;;;565539;247;24164;-78
2023/08/09 03:24:04;;;;;;;4.57;2.77;;;9.90;99.90;9.40;99753;;;;551675;254;24195;-77
2023/08/09 03:26:32;;;;;;;2.63;2.47;;;10.00;99.90;9.50;99758;;;;574491;248;24170;-80
2023/08/09 03:28:59;;;;;;;4.37;2.93;;;9.90;99.90;9.50;99764;;;;570053;246;23992;-79
2023/08/09 03:31:27;;;;;;;2.50;2.30;;;10.00;99.90;9.50;99765;;;;562469;250;24074;-78
2023/08/09 03:33:55;;;;;;;3.30;3.00;;;10.00;99.90;9.50;99757;;;;563057;251;24074;-78
2023/08/09 03:36:23;;;;;;;4.27;3.20;;;10.00;99.90;9.60;99756;;;;573224;246;24094;-78
2023/08/09 03:38:51;;;;;;;3.03;2.83;;;10.10;99.90;9.60;99756;;;;562088;251;24078;-77
2023/08/09 03:41:19;;;;;;;4.40;2.83;;;10.10;99.90;9.60;99764;;;;569178;252;24128;-77
2023/08/09 03:43:47;;;;;;;5.30;3.07;;;10.10;99.90;9.70;99769;;;;571370;251;24133;-78
2023/08/09 03:46:18;;;;;;;4.57;2.70;;;10.20;99.90;9.70;99774;;;;571021;250;24156;-78
2023/08/09 03:48:43;;;;;;;3.50;3.20;;;10.20;99.90;9.80;99775;;;;562168;252;24154;-78
2023/08/09 03:51:14;;;;;;;3.30;3.00;;;10.30;99.90;9.80;99764;;;;568672;252;24106;-78
2023/08/09 03:53:39;;;;;;;5.63;2.70;;;10.30;99.90;9.90;99767;;;;560801;256;24253;-79
2023/08/09 03:56:10;;;;;;;3.77;2.80;;;10.40;99.90;10.00;99779;;;;571565;251;24109;-79
2023/08/09 03:58:38;;;;;;;3.40;3.00;;;10.40;99.90;10.00;99766;;;;562474;251;24151;-77
2023/08/09 04:01:06;;;;;;;2.60;2.40;;;10.50;99.90;10.10;99771;;;;570979;251;24188;-78
2023/08/09 04:03:30;;;;;;;3.57;2.30;;;10.60;99.90;10.20;99780;;;;570804;251;24223;-77
2023/08/09 04:35:25;;;;;;;2.13;1.93;;;19.10;99.90;19.50;99811;;;;580454;248;24098;-81
2023/08/09 04:37:53;;;;;;;3.53;1.50;;;20.40;99.90;20.30;99817;;;;561582;252;24191;-81
2023/08/09 04:40:25;;;;;;;1.73;1.50;;;22.00;99.90;21.20;99807;;;;573288;247;24253;-81
2023/08/09 04:42:53;;;;;;;1.97;1.40;;;22.90;99.90;21.90;99801;;;;562799;251;24196;-82
2023/08/09 04:45:21;;;;;;;4.80;1.60;;;22.80;99.90;22.50;99800;;;;572940;247;24082;-79
2023/08/09 04:47:48;;;;;;;4.30;1.40;;;24.30;99.90;23.30;99799;;;;561456;251;24113;-81
2023/08/09 04:50:14;;;;;;;4.43;1.40;;;24.30;99.90;24.00;99798;;;;563095;251;23223;-80
2023/08/09 04:52:42;;;;;;;4.03;1.20;;;25.10;99.90;24.70;99804;;;;561469;252;23176;-79
2023/08/09 04:55:11;;;;;;;1.83;1.40;;;25.80;99.90;25.40;99808;;;;571317;247;24159;-79
2023/08/09 04:57:39;;;;;;;2.50;1.50;;;27.10;97.30;26.00;99821;;;;571230;247;23219;-79
2023/08/09 05:00:10;;;;;;;1.77;1.03;;;27.70;94.60;26.60;99821;;;;570908;251;23127;-78
2023/08/09 05:02:38;;;;;;;1.77;1.20;;;27.60;94.50;27.10;99824;;;;570754;251;23130;-80
2023/08/09 05:05:09;;;;;;;3.90;1.60;;;28.10;92.20;27.70;99813;;;;570233;247;23185;-79
2023/08/09 05:07:37;;;;;;;2.80;1.47;;;28.70;89.20;28.20;99826;;;;567532;248;24100;-79
2023/08/09 05:10:08;;;;;;;1.55;1.08;;;29.20;85.00;28.40;99830;;;;562515;251;23124;-79
2023/08/09 05:12:33;;;;;;;3.42;1.30;;;29.50;81.90;28.90;99837;;;;572995;247;23097;-79
2023/08/09 05:15:00;;;;;;;1.45;1.35;;;29.80;79.40;29.30;99841;;;;562314;251;24147;-78
2023/08/09 05:17:28;;;;;;;7.70;1.55;;;30.30;77.30;29.60;99852;;;;573451;247;23178;-79
2023/08/09 05:19:56;;;;;;;1.92;1.40;;;30.60;75.70;29.90;99862;;;;562830;251;24185;-78
2023/08/09 05:22:24;;;;;;;1.98;1.40;;;30.90;74.00;30.60;99864;;;;573000;247;23139;-77
2023/08/09 05:24:52;;;;;;;1.17;1.17;;;31.50;70.40;31.10;99868;;;;573006;247;23105;-81
2023/08/09 05:27:24;;;;;;;2.00;1.25;;;32.00;67.50;31.30;99868;;;;562066;252;24230;-82
2023/08/09 05:29:48;;;;;;;2.53;1.48;;;32.20;65.80;31.50;99873;;;;571760;247;23116;-79
2023/08/09 05:32:17;;;;;;;1.90;1.37;;;32.50;63.40;31.70;99877;;;;562314;251;24137;-79
2023/08/09 05:34:44;;;;;;;2.62;1.25;;;32.40;62.50;32.00;99883;;;;579121;247;23098;-78
2023/08/09 05:37:12;;;;;;;3.33;1.60;;;32.80;63.40;32.60;99889;;;;576802;242;46193;-78
2023/08/09 05:39:40;;;;;;;2.62;1.02;;;33.30;60.40;32.70;99895;;;;561464;252;23130;-80
2023/08/09 05:42:08;;;;;;;3.70;1.55;;;33.60;61.70;33.40;99899;;;;569365;252;23129;-79
2023/08/09 05:44:36;;;;;;;2.35;1.58;;;34.10;59.80;33.90;99897;;;;561892;252;24141;-79
2023/08/09 05:47:05;;;;;;;3.90;1.30;;;34.90;57.10;34.10;99891;;;;571365;249;23191;-78
2023/08/09 05:49:33;;;;;;;5.90;1.83;;;35.20;56.50;34.50;99892;;;;572089;249;23115;-78
2023/08/09 05:52:01;;;;;;;2.95;1.48;;;35.10;55.70;34.80;99895;;;;563852;250;23121;-78
2023/08/09 05:54:29;;;;;;;1.98;1.20;;;35.40;54.70;35.20;99894;;;;562067;251;23116;-79
2023/08/09 06:04:26;;;;;;;2.55;1.58;;;36.70;51.90;36.40;99904;;;;577958;248;24180;-78
2023/08/09 06:06:55;;;;;;;4.18;1.50;;;36.90;50.50;36.20;99910;;;;574877;247;23084;-80
2023/08/09 06:09:23;;;;;;;3.08;1.30;;;36.90;50.50;36.10;99909;;;;568610;248;24150;-79
2023/08/09 06:11:55;;;;;;;3.53;1.77;;;36.90;50.30;36.20;99919;;;;574790;247;23075;-78
2023/08/09 06:14:20;;;;;;;6.22;1.60;;;36.80;50.20;36.20;99916;;;;573270;247;23076;-80
2023/08/09 06:16:48;;;;;;;4.15;1.37;;;36.90;50.50;36.70;99917;;;;565749;248;24173;-79
2023/08/09 06:19:17;;;;;;;3.75;1.50;;;37.20;50.00;36.80;99914;;;;575149;249;23131;-80
2023/08/09 06:21:47;;;;;;;6.43;1.60;;;37.30;49.10;36.90;99918;;;;573383;246;23154;-81
2023/08/09 06:24:12;;;;;;;2.37;1.45;;;37.60;48.20;37.20;99921;;;;570435;251;23168;-82
2023/08/09 06:26:40;;;;;;;4.60;1.70;;;37.60;48.10;37.40;99918;;;;561645;247;23112;-81
2023/08/09 06:29:09;;;;;;;5.05;1.60;;;37.80;48.40;37.80;99923;;;;579791;244;23106;-81
2023/08/09 06:31:37;;;;;;;3.30;1.60;;;38.50;46.60;38.20;99927;;;;576866;244;24135;-81
2023/08/09 06:34:05;;;;;;;3.45;1.70;;;38.50;46.60;37.80;99932;;;;570322;247;23225;-80
2023/08/09 06:36:33;;;;;;;6.37;1.98;;;38.30;46.40;37.20;99934;;;;579543;244;23079;-81
2023/08/09 06:39:01;;;;;;;5.30;1.42;;;37.90;47.00;37.30;99939;;;;561414;251;23141;-85
2023/08/09 06:41:28;;;;;;;4.22;1.75;;;37.80;47.00;37.60;99935;;;;579292;247;23110;-83
2023/08/09 06:43:56;;;;;;;2.35;1.25;;;38.00;46.90;37.50;99938;;;;579802;246;23133;-84
2023/08/09 06:46:24;;;;;;;6.32;1.70;;;37.90;46.10;37.20;99942;;;;578330;246;23118;-83
2023/08/09 06:48:53;;;;;;;5.87;1.75;;;38.00;46.60;37.60;99949;;;;572589;246;24090;-79
2023/08/09 06:51:24;;;;;;;3.78;1.45;;;37.90;46.50;37.90;99951;;;;583120;241;24080;-79
2023/08/09 06:53:52;;;;;;;4.68;1.70;;;38.20;46.00;38.00;99952;;;;569617;250;23026;-82
2023/08/09 06:56:17;;;;;;;5.62;1.50;;;38.30;45.90;38.00;99961;;;;566516;242;23083;-85
2023/08/09 06:58:45;;;;;;;2.47;1.83;;;38.40;45.60;37.70;99963;;;;577184;244;23119;-85
2023/08/09 07:01:13;;;;;;;4.07;1.50;;;38.20;45.80;37.30;99964;;;;556361;250;35401;-81
2023/08/09 07:03:43;;;;;;;3.92;1.58;;;37.90;45.60;36.80;99960;;;;580281;247;24096;-81
2023/08/09 07:06:11;;;;;;;4.43;1.58;;;37.40;46.50;36.50;99963;;;;562077;251;23151;-82
2023/08/09 07:08:39;;;;;;;5.30;1.40;;;37.00;46.30;36.30;99969;;;;580333;241;23084;-86
2023/08/09 07:11:07;;;;;;;4.65;1.65;;;36.70;46.90;36.10;99966;;;;564271;251;23196;-85
2023/08/09 07:13:35;;;;;;;5.65;1.60;;;36.40;47.40;36.30;99963;;;;585362;242;23099;-85
2023/08/09 07:16:04;;;;;;;5.90;1.58;;;37.00;47.20;37.10;99962;;;;564265;250;24165;-84
2023/08/09 07:18:32;;;;;;;4.70;1.83;;;37.00;47.20;37.80;99970;;;;563937;250;24170;-82
2023/08/09 07:21:00;;;;;;;4.20;1.58;;;37.70;46.20;38.40;99971;;;;572383;248;23176;-83
2023/08/09 07:23:27;;;;;;;4.53;1.40;;;38.30;45.10;39.10;99975;;;;570647;245;23119;-84
2023/08/09 07:25:55;;;;;;;7.03;2.15;;;39.00;44.80;40.00;99968;;;;569605;246;23125;-81
2023/08/09 07:28:23;;;;;;;3.87;1.52;;;39.90;45.00;40.90;99978;;;;583057;245;23116;-84
2023/08/09 07:30:55;;;;;;;3.65;1.60;;;41.70;42.50;41.70;99977;;;;573875;245;23137;-81
2023/08/09 07:33:22;;;;;;;3.47;1.75;;;41.60;42.40;42.40;99981;;;;566454;247;23244;-81
2023/08/09 07:35:50;;;;;;;5.00;1.85;;;42.40;41.70;42.80;99981;;;;572871;248;23191;-82
2023/08/09 07:38:18;;;;;;;3.00;1.70;;;42.80;41.10;43.30;99986;;;;574788;244;23088;-82
2023/08/09 07:40:46;;;;;;;2.15;1.45;;;43.40;40.30;43.70;99992;;;;582955;242;23104;-84
2023/08/09 07:43:14;;;;;;;4.30;1.45;;;43.90;39.90;44.10;99984;;;;560996;251;23159;-83
2023/08/09 07:45:45;;;;;;;4.05;1.50;;;44.30;39.30;44.10;99990;;;;569144;249;23122;-81
2023/08/09 07:48:10;;;;;;;2.40;1.50;;;44.30;38.70;43.60;99992;;;;564613;247;23150;-81
2023/08/09 07:50:38;;;;;;;3.62;1.48;;;44.10;38.00;42.80;100002;;;;579346;246;23114;-82
2023/08/09 07:53:06;;;;;;;3.33;2.03;;;43.20;38.80;42.80;100001;;;;576543;246;23211;-79
2023/08/09 07:55:34;;;;;;;3.62;1.75;;;43.10;38.70;43.10;100004;;;;573982;244;24116;-85
2023/08/09 07:58:02;;;;;;;2.42;1.70;;;43.30;39.10;43.80;100011;;;;565348;249;23118;-81
2023/08/09 08:00:30;;;;;;;3.47;1.62;;;43.80;38.90;44.40;100018;;;;572511;247;23110;-81
2023/08/09 08:02:58;;;;;;;2.92;1.58;;;44.50;38.50;45.10;100025;;;;562844;252;23212;-86
2023/08/09 08:05:30;;;;;;;6.53;2.20;;;45.20;38.20;44.80;100020;;;;579737;247;23079;-83
2023/08/09 08:07:54;;;;;;;2.33;1.40;;;45.30;37.00;44.90;100030;;;;570422;250;23119;-80
2023/08/09 08:10:27;;;;;;;2.42;1.35;;;45.40;36.80;44.90;100018;;;;572600;247;23161;-83
2023/08/09 08:12:51;;;;;;;10.43;1.48;;;45.30;36.70;44.90;100023;;;;572014;243;23087;-79
2023/08/09 08:15:20;;;;;;;2.95;1.45;;;45.20;36.60;45.10;100025;;;;562906;252;23130;-81
2023/08/09 08:17:51;;;;;;;2.30;1.42;;;45.30;35.60;45.60;100033;;;;572693;247;23181;-80
2023/08/09 08:20:19;;;;;;;3.62;1.23;;;45.80;35.70;46.10;100026;;;;572444;250;23129;-80
2023/08/09 08:22:45;;;;;;;1.45;1.25;;;46.30;35.90;45.00;100027;;;;564014;251;23108;-81
2023/08/09 08:25:13;;;;;;;2.80;1.45;;;45.80;35.20;44.90;100027;;;;572349;251;23134;-83
2023/08/09 08:27:45;;;;;;;2.22;1.37;;;45.50;35.80;45.40;100025;;;;563218;251;23168;-83
2023/08/09 08:30:11;;;;;;;1.77;1.20;;;45.70;35.60;46.00;100035;;;;572330;248;23091;-81
2023/08/09 08:32:41;;;;;;;3.80;1.62;;;46.20;35.50;45.50;100036;;;;570283;248;23160;-83
2023/08/09 08:35:13;;;;;;;5.10;1.53;;;46.20;34.70;43.50;100039;;;;564165;248;35463;-82
2023/08/09 08:37:43;;;;;;;1.80;1.30;;;45.00;34.90;40.50;100044;;;;560324;252;23135;-84
2023/08/09 08:40:33;;;;;;;3.65;1.42;;;42.60;36.10;39.40;100040;;;;570054;247;23139;-82
2023/08/09 08:42:41;;;;;;;3.62;1.08;;;40.80;37.90;40.10;100045;;;;570578;247;23131;-83
2023/08/09 08:45:14;;;;;;;2.85;1.10;;;40.60;38.60;40.70;100039;;;;562077;252;23129;-84
2023/08/09 08:47:43;;;;;;;1.92;1.17;;;40.90;38.80;42.00;100043;;;;562245;252;24140;-86
2023/08/09 08:50:08;;;;;;;3.15;1.20;;;42.00;38.40;42.70;100049;;;;571289;243;23119;-81
2023/08/09 08:52:39;;;;;;;1.95;1.23;;;42.80;37.00;43.70;100046;;;;561186;252;23127;-81
2023/08/09 08:55:10;;;;;;;2.55;1.40;;;43.80;36.70;44.30;100043;;;;578758;245;23128;-78
2023/08/09 08:57:38;;;;;;;3.05;1.50;;;45.10;35.00;44.40;100053;;;;577661;245;23076;-81
2023/08/09 09:00:08;;;;;;;3.60;1.73;;;45.00;35.20;44.10;100053;;;;574495;249;23148;-79
2023/08/09 09:02:31;;;;;;;2.40;1.33;;;45.00;35.00;41.90;100049;;;;574463;248;23176;-79
2023/08/09 09:04:59;;;;;;;2.50;1.40;;;43.70;35.30;39.30;100051;;;;571671;249;23096;-79
2023/08/09 09:07:27;;;;;;;3.22;1.30;;;41.40;36.30;37.40;100064;;;;582204;241;23125;-78
2023/08/09 09:10:05;;;;;;;4.20;1.50;;;39.40;38.30;35.60;100065;;;;584674;240;23102;-79
2023/08/09 09:12:29;;;;;;;5.87;1.50;;;37.30;40.20;34.10;100058;;;;584342;245;23128;-79
2023/08/09 09:14:58;;;;;;;3.35;1.35;;;34.40;43.30;33.40;100062;;;;585149;238;23139;-84
2023/08/09 09:17:30;;;;;;;3.92;1.33;;;33.20;44.10;32.20;100063;;;;585144;240;23061;-81
2023/08/09 09:19:54;;;;;;;4.82;1.45;;;33.10;44.00;32.60;100061;;;;575479;246;23096;-77
2023/08/09 09:22:34;;;;;;;2.78;1.00;;;33.10;45.50;32.10;100067;;;;584850;242;23062;-81
2023/08/09 09:25:02;;;;;;;1.98;1.08;;;32.80;44.80;31.70;100066;;;;573407;246;24168;-84
2023/08/09 09:27:33;;;;;;;4.43;1.20;;;32.30;46.00;31.30;100061;;;;573405;245;24197;-81
2023/08/09 09:30:12;;;;;;;1.20;1.00;;;32.00;46.00;30.90;100055;;;;573123;245;23083;-81
2023/08/09 09:32:29;;;;;;;6.22;1.15;;;31.60;46.50;31.30;100058;;;;575438;246;23135;-84
2023/08/09 09:34:56;;;;;;;1.33;1.23;;;31.90;47.00;32.90;100055;;;;576322;246;23151;-84
2023/08/09 09:37:29;;;;;;;1.52;1.17;;;33.10;47.50;34.80;100059;;;;576901;244;23074;-80
2023/08/09 09:39:52;;;;;;;1.73;1.15;;;35.10;44.10;36.40;100049;;;;572041;244;24100;-85
2023/08/09 09:42:43;;;;;;;;;;;;;;;;;;;;;
2023/08/09 09:45:09;;;;;;;3.40;1.42;;;38.20;40.70;39.10;100051;;;;583216;241;23057;-83
2023/08/09 09:47:40;;;;;;;6.07;1.35;;;39.90;39.40;40.10;100050;;;;559515;252;24173;-82
2023/08/09 09:50:13;;;;;;;1.27;1.17;;;41.50;36.80;40.00;100051;;;;571699;248;23130;-83
2023/08/09 09:52:38;;;;;;;1.55;1.02;;;41.20;37.20;39.30;100055;;;;570150;248;23168;-87
2023/08/09 09:55:11;;;;;;;2.40;1.37;;;41.20;37.30;39.90;100055;;;;577204;246;35210;-81
2023/08/09 09:57:39;;;;;;;3.97;1.05;;;41.40;37.60;39.90;100051;;;;565790;252;23138;-81
2023/08/09 10:00:08;;;;;;;4.50;1.25;;;41.60;36.30;40.10;100052;;;;573305;246;23139;-81
2023/08/09 10:02:45;;;;;;;3.80;1.20;;;41.70;36.60;41.30;100052;;;;579564;242;23101;-76
2023/08/09 10:05:12;;;;;;;3.33;1.42;;;42.50;36.70;42.60;100055;;;;592439;242;23072;-80
2023/08/09 10:07:40;;;;;;;1.00;0.90;;;43.70;36.20;43.60;100048;;;;583889;241;23128;-80
2023/08/09 10:10:11;;;;;;;2.92;1.10;;;45.00;35.20;44.00;100060;;;;584110;241;23057;-81
2023/08/09 10:12:35;;;;;;;2.72;1.23;;;45.70;34.20;42.70;100050;;;;583967;241;23114;-81
2023/08/09 10:15:03;;;;;;;1.25;1.00;;;44.80;34.40;41.10;100061;;;;584351;241;23070;-78
2023/08/09 10:17:31;;;;;;;0.98;0.98;;;43.50;34.60;40.30;100053;;;;584596;241;24090;-80
2023/08/09 10:19:59;;;;;;;2.47;1.12;;;42.40;35.70;38.80;100059;;;;584611;241;23118;-79
2023/08/09 10:22:27;;;;;;;1.42;1.00;;;41.00;35.70;36.90;100050;;;;584851;241;23067;-80
2023/08/09 10:24:58;;;;;;;1.65;0.88;;;39.10;37.10;37.20;100045;;;;593996;238;23071;-78
2023/08/09 10:27:50;;;;;;;1.92;1.00;;;38.50;38.60;37.90;100045;;;;573957;246;23106;-79
2023/08/09 10:41:37;;;;;;;1.75;1.48;;;40.80;37.50;39.00;100060;;;;565621;251;23172;-79
2023/08/09 10:44:05;;;;;;;1.62;1.00;;;40.60;37.60;38.30;100061;;;;569116;251;23117;-82
2023/08/09 10:46:30;;;;;;;2.60;0.93;;;40.00;38.00;37.70;100052;;;;574341;245;23106;-81
2023/08/09 10:49:03;;;;;;;1.85;1.05;;;38.20;39.20;36.90;100060;;;;581689;242;23090;-80
2023/08/09 10:51:30;;;;;;;2.53;1.00;;;38.20;39.20;35.60;100058;;;;562968;251;23122;-79
2023/08/09 10:53:58;;;;;;;3.25;1.00;;;36.80;38.70;34.10;100054;;;;574948;246;23107;-80
2023/08/09 10:56:49;;;;;;;2.20;0.80;;;35.10;41.00;32.90;100062;;;;581474;247;23142;-80
2023/08/09 10:59:27;;;;;;;1.25;0.77;;;33.60;43.20;31.70;100050;;;;574133;242;23093;-80
2023/08/09 11:01:53;;;;;;;1.65;0.88;;;32.20;45.40;30.60;100055;;;;575135;242;23130;-79
2023/08/09 11:04:20;;;;;;;4.43;1.12;;;31.00;46.70;29.40;100065;;;;573134;243;23110;-80
2023/08/09 11:06:52;;;;;;;0.90;0.90;;;29.90;48.10;28.50;100060;;;;573539;243;24088;-82
2023/08/09 11:09:21;;;;;;;0.80;0.77;;;28.90;49.50;27.80;100064;;;;571424;243;23104;-80
2023/08/09 11:11:51;;;;;;;2.43;0.80;;;28.00;50.70;27.10;100062;;;;560118;252;23154;-81
2023/08/09 11:14:18;;;;;;;0.60;0.60;;;27.30;51.70;26.70;100054;;;;571176;247;23098;-80
2023/08/09 11:16:46;;;;;;;1.40;1.00;;;26.80;53.00;26.40;100052;;;;570955;247;24081;-82
2023/08/09 11:19:17;;;;;;;3.92;0.80;;;26.50;55.20;25.80;100050;;;;566341;247;35216;-80
2023/08/09 11:21:45;;;;;;;1.73;0.93;;;26.00;54.70;25.40;100057;;;;567143;247;23182;-79
2023/08/09 11:24:13;;;;;;;3.13;1.03;;;25.60;55.80;25.10;100048;;;;560999;252;24125;-84
2023/08/09 11:26:53;;;;;;;3.90;0.90;;;25.30;56.80;24.70;100054;;;;570128;247;23102;-84
2023/08/09 11:29:20;;;;;;;0.80;0.80;;;24.90;57.50;24.30;100063;;;;568513;248;23081;-86
2023/08/09 11:31:45;;;;;;;1.10;0.53;;;24.50;58.00;24.10;100059;;;;572461;246;23210;-82
2023/08/09 11:34:16;;;;;;;1.53;0.70;;;24.30;58.30;23.90;100055;;;;578035;246;23082;-79
2023/08/09 11:36:41;;;;;;;0.80;0.70;;;24.20;58.60;23.90;100066;;;;568638;247;24156;-81
2023/08/09 11:39:13;;;;;;;0.80;0.70;;;24.20;58.90;24.10;100067;;;;575404;246;24148;-78
2023/08/09 11:41:56;;;;;;;1.63;0.83;;;24.30;59.00;24.10;100064;;;;567242;246;24178;-83
2023/08/09 11:44:26;;;;;;;1.95;0.90;;;24.40;58.50;24.10;100064;;;;561715;250;35340;-80
2023/08/09 11:47:00;;;;;;;2.73;1.10;;;24.40;58.60;24.10;100075;;;;560976;251;23171;-84
2023/08/09 11:49:30;;;;;;;0.80;0.70;;;24.50;59.90;23.80;100076;;;;561343;248;23179;-83
2023/08/09 11:51:59;;;;;;;0.80;0.80;;;24.10;58.60;23.70;100070;;;;565212;251;23290;-83
2023/08/09 11:54:24;;;;;;;1.30;0.70;;;24.10;58.60;23.70;100073;;;;578809;242;24090;-80
2023/08/09 11:56:55;;;;;;;1.35;0.90;;;24.10;59.80;23.80;100067;;;;565795;251;35366;-84
2023/08/09 11:59:20;;;;;;;1.57;0.90;;;24.20;60.70;24.10;100068;;;;577802;246;23098;-84
2023/08/09 12:01:51;;;;;;;0.60;0.60;;;24.70;59.70;24.40;100067;;;;562139;252;23133;-87
2023/08/09 12:04:23;;;;;;;0.73;0.73;;;25.00;59.30;24.60;100069;;;;563744;251;23129;-86
2023/08/09 12:06:54;;;;;;;1.63;1.10;;;25.00;59.30;24.70;100065;;;;571658;246;23135;-86
2023/08/09 12:09:39;;;;;;;2.53;1.17;;;25.00;58.00;24.50;100070;;;;565093;251;24129;-80
2023/08/09 12:12:09;;;;;;;1.23;0.80;;;26.50;58.30;24.30;100068;;;;566449;246;35114;-83
2023/08/09 12:14:34;;;;;;;3.00;1.07;;;24.70;57.50;24.00;100069;;;;565234;251;23103;-85
2023/08/09 12:17:04;;;;;;;0.87;0.80;;;24.50;58.00;23.70;100076;;;;576359;246;23102;-83
2023/08/09 12:19:34;;;;;;;3.50;0.80;;;23.90;58.90;23.40;100066;;;;565741;251;24186;-85
2023/08/09 12:22:03;;;;;;;1.30;0.90;;;23.60;59.80;23.10;100063;;;;576869;246;25149;-85
2023/08/09 12:24:31;;;;;;;2.97;1.07;;;23.30;60.00;22.80;100061;;;;561955;250;23108;-81
2023/08/09 12:26:59;;;;;;;0.83;0.70;;;23.20;59.90;22.50;100065;;;;576130;246;24100;-82
2023/08/09 12:29:27;;;;;;;6.57;2.87;;;23.00;60.00;22.30;100074;;;;565151;251;24123;-80
2023/08/09 12:31:55;;;;;;;2.07;1.00;;;22.80;59.70;22.10;100070;;;;565120;248;24197;-82
2023/08/09 12:34:26;;;;;;;1.03;0.83;;;22.60;60.50;22.00;100064;;;;575849;246;24167;-81
2023/08/09 12:36:54;;;;;;;1.50;1.07;;;22.30;62.10;21.90;100073;;;;564872;251;24138;-79
2023/08/09 12:39:21;;;;;;;1.10;1.00;;;22.30;62.90;21.90;100067;;;;565448;251;24130;-79
2023/08/09 12:41:52;;;;;;;8.40;1.47;;;22.20;63.90;21.80;100069;;;;570872;246;24106;-80
2023/08/09 12:44:19;;;;;;;2.43;1.10;;;22.20;63.20;21.80;100075;;;;564941;251;24157;-79
2023/08/09 12:46:51;;;;;;;7.60;4.20;;;22.10;62.50;21.70;100067;;;;575426;246;24141;-80
2023/08/09 12:49:20;;;;;;;1.50;1.07;;;22.10;63.90;21.60;100076;;;;565113;250;24088;-80
2023/08/09 12:51:50;;;;;;;1.10;0.70;;;22.00;63.00;21.50;100082;;;;584750;245;24070;-82
2023/08/09 12:54:16;;;;;;;1.00;0.80;;;22.00;64.10;21.50;100073;;;;564887;251;24109;-81
2023/08/09 12:56:43;;;;;;;2.45;1.12;;;21.90;65.30;21.30;100070;;;;570860;246;35110;-79
2023/08/09 12:59:11;;;;;;;0.77;0.77;;;21.80;64.20;21.30;100077;;;;564834;249;24112;-82
2023/08/09 13:01:42;;;;;;;6.30;2.63;;;21.70;63.60;21.20;100079;;;;575936;246;24139;-82
2023/08/09 13:04:07;;;;;;;3.60;1.12;;;21.60;65.00;21.10;100080;;;;560886;250;35237;-80
2023/08/09 13:06:38;;;;;;;1.43;1.00;;;21.60;65.30;21.00;100083;;;;566546;250;24194;-80
2023/08/09 13:09:03;;;;;;;0.90;0.90;;;21.50;66.00;21.00;100086;;;;576559;246;24045;-81
2023/08/09 13:11:31;;;;;;;1.87;1.13;;;21.50;66.10;21.00;100091;;;;565539;251;24090;-80
2023/08/09 13:14:01;;;;;;;1.93;1.10;;;21.50;65.80;21.00;100085;;;;576122;246;24143;-79
2023/08/09 13:16:31;;;;;;;4.07;0.80;;;21.40;66.20;20.90;100081;;;;565332;251;24098;-82
2023/08/09 13:18:58;;;;;;;6.20;0.90;;;21.40;65.90;20.90;100086;;;;565684;251;24138;-80
2023/08/09 13:21:26;;;;;;;1.60;1.10;;;21.30;66.00;20.90;100094;;;;576498;246;24066;-80
2023/08/09 13:23:55;;;;;;;6.63;1.50;;;21.30;65.90;20.90;100092;;;;565404;250;25152;-79
2023/08/09 13:26:27;;;;;;;0.80;0.80;;;21.30;65.30;20.90;100092;;;;565886;251;24109;-80
2023/08/09 13:28:55;;;;;;;1.97;0.67;;;21.30;65.20;20.90;100083;;;;569416;246;24156;-81
2023/08/09 13:31:23;;;;;;;1.77;0.83;;;21.30;65.30;20.90;100089;;;;565300;251;24128;-81
2023/08/09 13:33:51;;;;;;;4.50;0.73;;;21.50;65.20;21.00;100089;;;;566666;247;24104;-81
2023/08/09 13:36:19;;;;;;;2.77;0.87;;;21.40;65.00;21.20;100095;;;;565884;251;23101;-81
2023/08/09 13:38:47;;;;;;;4.13;0.90;;;21.60;65.20;21.40;100095;;;;572302;246;24128;-85
2023/08/09 13:41:19;;;;;;;3.40;1.00;;;21.80;64.90;21.70;100088;;;;565434;251;23154;-86
2023/08/09 13:43:43;;;;;;;3.47;0.80;;;22.10;64.70;21.90;100095;;;;575623;246;24226;-86
2023/08/09 13:46:11;;;;;;;2.37;0.67;;;22.40;63.40;22.10;100089;;;;565012;251;24127;-78
2023/08/09 13:48:39;;;;;;;3.30;1.00;;;22.60;63.20;22.20;100100;;;;565166;248;24157;-80
2023/08/09 13:51:07;;;;;;;0.70;0.70;;;22.70;63.30;22.30;100097;;;;575933;246;24065;-78
2023/08/09 13:53:35;;;;;;;0.73;0.73;;;22.70;61.80;22.30;100102;;;;565524;248;23156;-77
2023/08/09 13:56:03;;;;;;;1.50;1.10;;;22.70;62.00;22.40;100096;;;;576595;246;24109;-77
2023/08/09 13:58:31;;;;;;;1.43;0.70;;;22.90;62.60;22.50;100100;;;;565695;251;24091;-79
2023/08/09 14:00:59;;;;;;;1.90;1.00;;;22.90;62.60;22.50;100098;;;;565554;251;24096;-80
2023/08/09 14:03:28;;;;;;;1.83;0.90;;;22.90;62.30;22.40;100104;;;;576510;246;24158;-80
2023/08/09 14:05:55;;;;;;;1.63;0.93;;;22.90;62.20;22.40;100104;;;;565827;251;24121;-79
2023/08/09 14:08:23;;;;;;;1.23;0.70;;;22.90;62.70;22.40;100114;;;;576400;246;24138;-78
2023/08/09 14:10:51;;;;;;;3.30;0.80;;;22.80;62.50;22.20;100110;;;;565943;249;24103;-77
2023/08/09 14:13:19;;;;;;;0.93;0.83;;;22.70;62.40;22.20;100110;;;;576574;246;24084;-81
2023/08/09 14:15:48;;;;;;;1.40;1.00;;;22.60;62.80;22.20;100114;;;;566400;250;24109;-81
2023/08/09 14:18:15;;;;;;;4.27;1.00;;;22.60;62.90;22.20;100112;;;;567349;249;24105;-85
2023/08/09 14:20:43;;;;;;;0.60;0.60;;;22.60;63.00;22.20;100118;;;;568002;250;24164;-82
2023/08/09 14:23:11;;;;;;;2.03;0.80;;;22.60;63.50;22.30;100128;;;;586704;244;24054;-82
2023/08/09 14:25:40;;;;;;;2.20;0.80;;;22.60;63.90;22.20;100127;;;;566419;251;24084;-85
2023/08/09 14:28:06;;;;;;;1.63;0.67;;;22.70;64.30;22.10;100131;;;;566295;250;24132;-81
2023/08/09 14:30:34;;;;;;;1.57;0.97;;;22.60;63.50;21.90;100137;;;;576704;246;24050;-82
2023/08/09 14:33:05;;;;;;;0.97;0.93;;;22.40;63.40;21.90;100133;;;;565942;249;24234;-82
2023/08/09 14:35:30;;;;;;;3.43;1.30;;;22.30;63.80;21.90;100143;;;;572006;246;24100;-82
2023/08/09 14:37:58;;;;;;;1.30;0.97;;;22.30;63.80;22.00;100142;;;;574554;250;24078;-82
2023/08/09 14:40:26;;;;;;;1.67;0.77;;;22.40;64.70;22.10;100142;;;;566081;250;24127;-84
2023/08/09 14:42:54;;;;;;;1.13;1.00;;;22.50;65.00;22.10;100145;;;;576663;246;24119;-84
2023/08/09 14:45:23;;;;;;;6.63;3.97;;;22.60;64.70;22.20;100145;;;;565628;251;24098;-85
2023/08/09 14:47:51;;;;;;;2.97;1.10;;;22.60;64.60;22.10;100149;;;;564451;250;24144;-85
2023/08/09 14:50:19;;;;;;;0.83;0.83;;;22.60;64.90;22.00;100147;;;;567669;250;24053;-83
2023/08/09 14:52:50;;;;;;;1.03;0.97;;;22.50;64.70;21.90;100148;;;;570414;250;24096;-84
2023/08/09 14:55:19;;;;;;;2.27;0.80;;;22.40;64.90;21.80;100149;;;;568684;246;23105;-82
2023/08/09 14:57:43;;;;;;;5.23;1.37;;;22.30;65.00;21.70;100150;;;;573870;246;24075;-87
2023/08/09 15:00:11;;;;;;;2.63;0.90;;;22.20;65.50;21.70;100157;;;;565081;248;24176;-85